sensor_id;sensor_type;location;lat;lon;timestamp;P1;durP1;ratioP1;P2;durP2;ratioP2
79399;SDS011;68856;45.586;10.264;2023-12-20T00:01:41;17.02;;;10.30;;
79399;SDS011;68856;45.586;10.264;2023-12-20T00:04:07;14.70;;;9.38;;
79399;SDS011;68856;45.586;10.264;2023-12-20T00:06:34;15.20;;;9.40;;
79399;SDS011;68856;45.586;10.264;2023-12-20T00:09:00;12.32;;;7.93;;
79399;SDS011;68856;45.586;10.264;2023-12-20T00:11:26;12.63;;;7.93;;
79399;SDS011;68856;45.586;10.264;2023-12-20T00:13:52;15.70;;;8.18;;
79399;SDS011;68856;45.586;10.264;2023-12-20T00:16:18;11.70;;;7.30;;
79399;SDS011;68856;45.586;10.264;2023-12-20T00:18:45;10.38;;;7.38;;
79399;SDS011;68856;45.586;10.264;2023-12-20T00:21:11;11.65;;;7.57;;
79399;SDS011;68856;45.586;10.264;2023-12-20T00:23:37;13.65;;;7.45;;
79399;SDS011;68856;45.586;10.264;2023-12-20T00:26:03;12.80;;;7.35;;
79399;SDS011;68856;45.586;10.264;2023-12-20T00:28:30;10.73;;;6.70;;
79399;SDS011;68856;45.586;10.264;2023-12-20T00:30:56;8.18;;;6.20;;
79399;SDS011;68856;45.586;10.264;2023-12-20T00:33:22;11.73;;;5.80;;
79399;SDS011;68856;45.586;10.264;2023-12-20T00:35:48;11.68;;;6.22;;
79399;SDS011;68856;45.586;10.264;2023-12-20T00:38:14;9.48;;;5.55;;
79399;SDS011;68856;45.586;10.264;2023-12-20T00:40:41;6.03;;;4.15;;
79399;SDS011;68856;45.586;10.264;2023-12-20T00:43:07;7.55;;;5.05;;
79399;SDS011;68856;45.586;10.264;2023-12-20T00:45:33;9.25;;;5.97;;
79399;SDS011;68856;45.586;10.264;2023-12-20T00:47:59;11.10;;;6.68;;
79399;SDS011;68856;45.586;10.264;2023-12-20T00:50:26;11.48;;;7.20;;
79399;SDS011;68856;45.586;10.264;2023-12-20T00:52:52;12.85;;;8.25;;
79399;SDS011;68856;45.586;10.264;2023-12-20T00:55:19;8.63;;;5.32;;
79399;SDS011;68856;45.586;10.264;2023-12-20T00:57:46;11.45;;;7.32;;
79399;SDS011;68856;45.586;10.264;2023-12-20T01:00:12;11.27;;;7.32;;
79399;SDS011;68856;45.586;10.264;2023-12-20T01:02:38;10.25;;;6.30;;
79399;SDS011;68856;45.586;10.264;2023-12-20T01:05:05;10.70;;;6.68;;
79399;SDS011;68856;45.586;10.264;2023-12-20T01:07:32;10.88;;;6.43;;
79399;SDS011;68856;45.586;10.264;2023-12-20T01:09:59;10.00;;;5.90;;
79399;SDS011;68856;45.586;10.264;2023-12-20T01:12:25;7.32;;;5.47;;
79399;SDS011;68856;45.586;10.264;2023-12-20T01:14:51;7.65;;;5.47;;
79399;SDS011;68856;45.586;10.264;2023-12-20T01:17:18;6.82;;;3.92;;
79399;SDS011;68856;45.586;10.264;2023-12-20T01:19:44;8.15;;;5.25;;
79399;SDS011;68856;45.586;10.264;2023-12-20T01:22:10;8.80;;;5.20;;
79399;SDS011;68856;45.586;10.264;2023-12-20T01:24:36;7.38;;;4.78;;
79399;SDS011;68856;45.586;10.264;2023-12-20T01:27:02;7.65;;;4.53;;
79399;SDS011;68856;45.586;10.264;2023-12-20T01:29:29;7.05;;;5.03;;
79399;SDS011;68856;45.586;10.264;2023-12-20T01:31:55;15.32;;;5.32;;
79399;SDS011;68856;45.586;10.264;2023-12-20T01:34:21;7.50;;;5.00;;
79399;SDS011;68856;45.586;10.264;2023-12-20T01:36:47;7.80;;;4.90;;
79399;SDS011;68856;45.586;10.264;2023-12-20T01:39:14;7.95;;;4.63;;
79399;SDS011;68856;45.586;10.264;2023-12-20T01:41:40;10.60;;;4.60;;
79399;SDS011;68856;45.586;10.264;2023-12-20T01:44:06;8.73;;;4.90;;
79399;SDS011;68856;45.586;10.264;2023-12-20T01:46:32;9.55;;;5.63;;
79399;SDS011;68856;45.586;10.264;2023-12-20T01:48:59;10.80;;;5.75;;
79399;SDS011;68856;45.586;10.264;2023-12-20T01:51:25;10.15;;;5.70;;
79399;SDS011;68856;45.586;10.264;2023-12-20T01:53:53;10.35;;;5.50;;
79399;SDS011;68856;45.586;10.264;2023-12-20T01:56:22;6.68;;;4.63;;
79399;SDS011;68856;45.586;10.264;2023-12-20T01:58:49;10.95;;;6.00;;
79399;SDS011;68856;45.586;10.264;2023-12-20T02:01:16;9.27;;;5.53;;
79399;SDS011;68856;45.586;10.264;2023-12-20T02:03:43;6.25;;;4.57;;
79399;SDS011;68856;45.586;10.264;2023-12-20T02:06:10;9.77;;;5.28;;
79399;SDS011;68856;45.586;10.264;2023-12-20T02:08:37;8.48;;;6.05;;
79399;SDS011;68856;45.586;10.264;2023-12-20T02:11:03;8.85;;;5.43;;
79399;SDS011;68856;45.586;10.264;2023-12-20T02:13:30;7.18;;;5.00;;
79399;SDS011;68856;45.586;10.264;2023-12-20T02:15:57;7.72;;;5.07;;
79399;SDS011;68856;45.586;10.264;2023-12-20T02:18:23;8.20;;;4.88;;
79399;SDS011;68856;45.586;10.264;2023-12-20T02:20:49;8.80;;;5.25;;
79399;SDS011;68856;45.586;10.264;2023-12-20T02:23:16;8.68;;;4.90;;
79399;SDS011;68856;45.586;10.264;2023-12-20T02:25:42;8.45;;;4.78;;
79399;SDS011;68856;45.586;10.264;2023-12-20T02:28:08;8.57;;;5.32;;
79399;SDS011;68856;45.586;10.264;2023-12-20T02:30:35;9.55;;;5.35;;
79399;SDS011;68856;45.586;10.264;2023-12-20T02:33:01;7.18;;;4.47;;
79399;SDS011;68856;45.586;10.264;2023-12-20T02:35:33;6.20;;;4.63;;
79399;SDS011;68856;45.586;10.264;2023-12-20T02:37:59;8.20;;;4.35;;
79399;SDS011;68856;45.586;10.264;2023-12-20T02:40:25;6.32;;;4.07;;
79399;SDS011;68856;45.586;10.264;2023-12-20T02:42:52;5.00;;;3.97;;
79399;SDS011;68856;45.586;10.264;2023-12-20T02:45:18;3.88;;;3.42;;
79399;SDS011;68856;45.586;10.264;2023-12-20T02:47:44;4.75;;;3.33;;
79399;SDS011;68856;45.586;10.264;2023-12-20T02:50:10;4.15;;;3.30;;
79399;SDS011;68856;45.586;10.264;2023-12-20T02:52:36;5.65;;;2.90;;
79399;SDS011;68856;45.586;10.264;2023-12-20T02:55:03;3.58;;;2.95;;
79399;SDS011;68856;45.586;10.264;2023-12-20T02:57:29;3.85;;;3.17;;
79399;SDS011;68856;45.586;10.264;2023-12-20T02:59:55;6.95;;;3.15;;
79399;SDS011;68856;45.586;10.264;2023-12-20T03:02:22;5.13;;;3.53;;
79399;SDS011;68856;45.586;10.264;2023-12-20T03:04:48;5.40;;;3.25;;
79399;SDS011;68856;45.586;10.264;2023-12-20T03:07:14;3.25;;;2.85;;
79399;SDS011;68856;45.586;10.264;2023-12-20T03:09:40;3.88;;;2.90;;
79399;SDS011;68856;45.586;10.264;2023-12-20T03:12:07;3.30;;;3.00;;
79399;SDS011;68856;45.586;10.264;2023-12-20T03:14:33;4.63;;;3.10;;
79399;SDS011;68856;45.586;10.264;2023-12-20T03:16:59;4.60;;;3.25;;
79399;SDS011;68856;45.586;10.264;2023-12-20T03:19:26;5.85;;;2.90;;
79399;SDS011;68856;45.586;10.264;2023-12-20T03:21:52;6.18;;;3.60;;
79399;SDS011;68856;45.586;10.264;2023-12-20T03:24:18;5.80;;;3.80;;
79399;SDS011;68856;45.586;10.264;2023-12-20T03:26:44;4.80;;;3.90;;
79399;SDS011;68856;45.586;10.264;2023-12-20T03:29:11;3.88;;;3.25;;
79399;SDS011;68856;45.586;10.264;2023-12-20T03:31:37;4.88;;;3.50;;
79399;SDS011;68856;45.586;10.264;2023-12-20T03:34:03;5.60;;;3.78;;
79399;SDS011;68856;45.586;10.264;2023-12-20T03:36:29;4.95;;;3.42;;
79399;SDS011;68856;45.586;10.264;2023-12-20T03:38:56;6.10;;;4.10;;
79399;SDS011;68856;45.586;10.264;2023-12-20T03:41:22;6.95;;;4.32;;
79399;SDS011;68856;45.586;10.264;2023-12-20T03:43:48;5.13;;;3.00;;
79399;SDS011;68856;45.586;10.264;2023-12-20T03:46:14;6.07;;;4.00;;
79399;SDS011;68856;45.586;10.264;2023-12-20T03:48:41;6.75;;;3.88;;
79399;SDS011;68856;45.586;10.264;2023-12-20T03:51:07;5.57;;;4.03;;
79399;SDS011;68856;45.586;10.264;2023-12-20T03:53:33;6.90;;;4.20;;
79399;SDS011;68856;45.586;10.264;2023-12-20T03:55:59;5.35;;;3.45;;
79399;SDS011;68856;45.586;10.264;2023-12-20T03:58:26;8.85;;;3.65;;
79399;SDS011;68856;45.586;10.264;2023-12-20T04:00:52;7.07;;;3.78;;
79399;SDS011;68856;45.586;10.264;2023-12-20T04:03:18;4.18;;;3.25;;
79399;SDS011;68856;45.586;10.264;2023-12-20T04:05:44;4.63;;;3.40;;
79399;SDS011;68856;45.586;10.264;2023-12-20T04:08:11;4.88;;;3.90;;
79399;SDS011;68856;45.586;10.264;2023-12-20T04:10:37;6.38;;;4.10;;
79399;SDS011;68856;45.586;10.264;2023-12-20T04:13:03;4.53;;;3.17;;
79399;SDS011;68856;45.586;10.264;2023-12-20T04:15:30;4.82;;;3.60;;
79399;SDS011;68856;45.586;10.264;2023-12-20T04:17:56;5.53;;;3.80;;
79399;SDS011;68856;45.586;10.264;2023-12-20T04:20:22;4.57;;;3.17;;
79399;SDS011;68856;45.586;10.264;2023-12-20T04:22:48;5.93;;;3.80;;
79399;SDS011;68856;45.586;10.264;2023-12-20T04:25:15;5.20;;;3.75;;
79399;SDS011;68856;45.586;10.264;2023-12-20T04:27:41;5.50;;;3.72;;
79399;SDS011;68856;45.586;10.264;2023-12-20T04:30:07;4.88;;;3.60;;
79399;SDS011;68856;45.586;10.264;2023-12-20T04:32:34;4.28;;;3.63;;
79399;SDS011;68856;45.586;10.264;2023-12-20T04:35:00;6.30;;;4.57;;
79399;SDS011;68856;45.586;10.264;2023-12-20T04:37:26;5.57;;;3.55;;
79399;SDS011;68856;45.586;10.264;2023-12-20T04:39:53;4.60;;;3.25;;
79399;SDS011;68856;45.586;10.264;2023-12-20T04:42:19;6.03;;;3.53;;
79399;SDS011;68856;45.586;10.264;2023-12-20T04:44:46;5.03;;;3.40;;
79399;SDS011;68856;45.586;10.264;2023-12-20T04:47:12;6.82;;;3.60;;
79399;SDS011;68856;45.586;10.264;2023-12-20T04:49:38;3.95;;;3.15;;
79399;SDS011;68856;45.586;10.264;2023-12-20T04:52:04;5.93;;;3.50;;
79399;SDS011;68856;45.586;10.264;2023-12-20T04:54:31;8.90;;;3.85;;
79399;SDS011;68856;45.586;10.264;2023-12-20T04:56:57;4.43;;;3.15;;
79399;SDS011;68856;45.586;10.264;2023-12-20T04:59:23;15.57;;;4.35;;
79399;SDS011;68856;45.586;10.264;2023-12-20T05:01:49;7.53;;;4.40;;
79399;SDS011;68856;45.586;10.264;2023-12-20T05:04:15;9.35;;;4.13;;
79399;SDS011;68856;45.586;10.264;2023-12-20T05:06:42;5.97;;;4.10;;
79399;SDS011;68856;45.586;10.264;2023-12-20T05:09:08;4.40;;;3.45;;
79399;SDS011;68856;45.586;10.264;2023-12-20T05:11:34;6.25;;;3.90;;
79399;SDS011;68856;45.586;10.264;2023-12-20T05:14:00;5.22;;;3.38;;
79399;SDS011;68856;45.586;10.264;2023-12-20T05:16:27;7.03;;;3.70;;
79399;SDS011;68856;45.586;10.264;2023-12-20T05:18:53;4.82;;;3.35;;
79399;SDS011;68856;45.586;10.264;2023-12-20T05:21:19;5.60;;;3.63;;
79399;SDS011;68856;45.586;10.264;2023-12-20T05:23:46;6.65;;;3.53;;
79399;SDS011;68856;45.586;10.264;2023-12-20T05:26:12;4.72;;;3.20;;
79399;SDS011;68856;45.586;10.264;2023-12-20T05:28:38;5.70;;;3.08;;
79399;SDS011;68856;45.586;10.264;2023-12-20T05:31:04;5.20;;;3.03;;
79399;SDS011;68856;45.586;10.264;2023-12-20T05:33:31;4.97;;;3.67;;
79399;SDS011;68856;45.586;10.264;2023-12-20T05:35:58;6.65;;;4.38;;
79399;SDS011;68856;45.586;10.264;2023-12-20T05:38:24;6.75;;;4.30;;
79399;SDS011;68856;45.586;10.264;2023-12-20T05:40:51;5.20;;;3.75;;
79399;SDS011;68856;45.586;10.264;2023-12-20T05:43:17;4.47;;;3.53;;
79399;SDS011;68856;45.586;10.264;2023-12-20T05:45:43;6.07;;;4.13;;
79399;SDS011;68856;45.586;10.264;2023-12-20T05:48:09;4.18;;;3.42;;
79399;SDS011;68856;45.586;10.264;2023-12-20T05:50:36;6.85;;;3.60;;
79399;SDS011;68856;45.586;10.264;2023-12-20T05:53:02;6.15;;;3.63;;
79399;SDS011;68856;45.586;10.264;2023-12-20T05:55:28;4.25;;;3.40;;
79399;SDS011;68856;45.586;10.264;2023-12-20T05:57:54;5.40;;;3.75;;
79399;SDS011;68856;45.586;10.264;2023-12-20T06:00:21;5.55;;;3.50;;
79399;SDS011;68856;45.586;10.264;2023-12-20T06:02:47;4.97;;;3.30;;
79399;SDS011;68856;45.586;10.264;2023-12-20T06:05:13;4.40;;;3.10;;
79399;SDS011;68856;45.586;10.264;2023-12-20T06:07:39;9.98;;;4.57;;
79399;SDS011;68856;45.586;10.264;2023-12-20T06:10:06;5.03;;;3.35;;
79399;SDS011;68856;45.586;10.264;2023-12-20T06:12:32;7.57;;;3.50;;
79399;SDS011;68856;45.586;10.264;2023-12-20T06:15:01;7.97;;;3.70;;
79399;SDS011;68856;45.586;10.264;2023-12-20T06:17:28;7.63;;;4.35;;
79399;SDS011;68856;45.586;10.264;2023-12-20T06:19:55;7.57;;;4.53;;
79399;SDS011;68856;45.586;10.264;2023-12-20T06:22:22;9.55;;;5.03;;
79399;SDS011;68856;45.586;10.264;2023-12-20T06:24:48;9.90;;;4.97;;
79399;SDS011;68856;45.586;10.264;2023-12-20T06:27:14;9.38;;;4.95;;
79399;SDS011;68856;45.586;10.264;2023-12-20T06:29:41;12.15;;;5.18;;
79399;SDS011;68856;45.586;10.264;2023-12-20T06:32:09;6.68;;;4.28;;
79399;SDS011;68856;45.586;10.264;2023-12-20T06:34:35;14.88;;;6.35;;
79399;SDS011;68856;45.586;10.264;2023-12-20T06:37:03;11.98;;;6.03;;
79399;SDS011;68856;45.586;10.264;2023-12-20T06:39:30;10.55;;;5.55;;
79399;SDS011;68856;45.586;10.264;2023-12-20T06:41:56;13.95;;;6.90;;
79399;SDS011;68856;45.586;10.264;2023-12-20T06:44:22;9.07;;;6.15;;
79399;SDS011;68856;45.586;10.264;2023-12-20T06:46:49;10.98;;;6.35;;
79399;SDS011;68856;45.586;10.264;2023-12-20T06:49:15;12.65;;;5.88;;
79399;SDS011;68856;45.586;10.264;2023-12-20T06:51:41;11.30;;;5.82;;
79399;SDS011;68856;45.586;10.264;2023-12-20T06:54:07;12.35;;;6.10;;
79399;SDS011;68856;45.586;10.264;2023-12-20T06:56:34;12.25;;;7.07;;
79399;SDS011;68856;45.586;10.264;2023-12-20T06:59:00;14.38;;;6.97;;
79399;SDS011;68856;45.586;10.264;2023-12-20T07:01:26;17.98;;;8.20;;
79399;SDS011;68856;45.586;10.264;2023-12-20T07:03:53;19.38;;;9.27;;
79399;SDS011;68856;45.586;10.264;2023-12-20T07:06:19;16.02;;;8.75;;
79399;SDS011;68856;45.586;10.264;2023-12-20T07:08:45;24.42;;;9.85;;
79399;SDS011;68856;45.586;10.264;2023-12-20T07:11:12;19.02;;;9.32;;
79399;SDS011;68856;45.586;10.264;2023-12-20T07:13:38;16.00;;;9.20;;
79399;SDS011;68856;45.586;10.264;2023-12-20T07:16:04;21.42;;;10.32;;
79399;SDS011;68856;45.586;10.264;2023-12-20T07:18:31;18.52;;;9.95;;
79399;SDS011;68856;45.586;10.264;2023-12-20T07:20:58;21.90;;;8.23;;
79399;SDS011;68856;45.586;10.264;2023-12-20T07:23:24;17.67;;;9.90;;
79399;SDS011;68856;45.586;10.264;2023-12-20T07:25:51;18.98;;;10.10;;
79399;SDS011;68856;45.586;10.264;2023-12-20T07:28:18;21.20;;;9.98;;
79399;SDS011;68856;45.586;10.264;2023-12-20T07:30:44;20.25;;;9.65;;
79399;SDS011;68856;45.586;10.264;2023-12-20T07:33:10;18.42;;;9.95;;
79399;SDS011;68856;45.586;10.264;2023-12-20T07:35:37;23.05;;;11.48;;
79399;SDS011;68856;45.586;10.264;2023-12-20T07:38:03;28.90;;;13.88;;
79399;SDS011;68856;45.586;10.264;2023-12-20T07:40:30;22.98;;;13.48;;
79399;SDS011;68856;45.586;10.264;2023-12-20T07:42:56;22.13;;;10.00;;
79399;SDS011;68856;45.586;10.264;2023-12-20T07:45:23;17.63;;;9.95;;
79399;SDS011;68856;45.586;10.264;2023-12-20T07:47:49;21.23;;;10.95;;
79399;SDS011;68856;45.586;10.264;2023-12-20T07:50:15;18.73;;;10.30;;
79399;SDS011;68856;45.586;10.264;2023-12-20T07:52:42;16.65;;;9.60;;
79399;SDS011;68856;45.586;10.264;2023-12-20T07:55:08;19.52;;;10.57;;
79399;SDS011;68856;45.586;10.264;2023-12-20T07:57:34;20.00;;;12.68;;
79399;SDS011;68856;45.586;10.264;2023-12-20T08:00:00;18.48;;;12.25;;
79399;SDS011;68856;45.586;10.264;2023-12-20T08:02:28;20.60;;;12.93;;
79399;SDS011;68856;45.586;10.264;2023-12-20T08:04:55;20.48;;;12.45;;
79399;SDS011;68856;45.586;10.264;2023-12-20T08:07:21;27.90;;;13.02;;
79399;SDS011;68856;45.586;10.264;2023-12-20T08:09:47;24.02;;;12.77;;
79399;SDS011;68856;45.586;10.264;2023-12-20T08:12:13;22.15;;;12.25;;
79399;SDS011;68856;45.586;10.264;2023-12-20T08:14:42;25.10;;;13.13;;
79399;SDS011;68856;45.586;10.264;2023-12-20T08:17:08;19.88;;;12.45;;
79399;SDS011;68856;45.586;10.264;2023-12-20T08:19:34;27.23;;;13.27;;
79399;SDS011;68856;45.586;10.264;2023-12-20T08:22:01;24.17;;;13.75;;
79399;SDS011;68856;45.586;10.264;2023-12-20T08:24:27;32.95;;;19.67;;
79399;SDS011;68856;45.586;10.264;2023-12-20T08:26:54;40.13;;;20.50;;
79399;SDS011;68856;45.586;10.264;2023-12-20T08:29:21;36.35;;;18.10;;
79399;SDS011;68856;45.586;10.264;2023-12-20T08:31:51;24.65;;;15.43;;
79399;SDS011;68856;45.586;10.264;2023-12-20T08:34:19;23.15;;;15.18;;
79399;SDS011;68856;45.586;10.264;2023-12-20T08:36:45;22.40;;;14.23;;
79399;SDS011;68856;45.586;10.264;2023-12-20T08:39:11;26.27;;;15.45;;
79399;SDS011;68856;45.586;10.264;2023-12-20T08:41:37;25.33;;;15.43;;
79399;SDS011;68856;45.586;10.264;2023-12-20T08:44:03;22.33;;;13.25;;
79399;SDS011;68856;45.586;10.264;2023-12-20T08:46:30;29.65;;;16.63;;
79399;SDS011;68856;45.586;10.264;2023-12-20T08:48:56;27.25;;;17.00;;
79399;SDS011;68856;45.586;10.264;2023-12-20T08:51:22;24.77;;;14.05;;
79399;SDS011;68856;45.586;10.264;2023-12-20T08:53:50;17.40;;;13.05;;
79399;SDS011;68856;45.586;10.264;2023-12-20T08:56:17;22.60;;;14.73;;
79399;SDS011;68856;45.586;10.264;2023-12-20T08:58:43;26.50;;;14.05;;
79399;SDS011;68856;45.586;10.264;2023-12-20T09:01:10;24.27;;;14.70;;
79399;SDS011;68856;45.586;10.264;2023-12-20T09:03:37;25.80;;;14.88;;
79399;SDS011;68856;45.586;10.264;2023-12-20T09:06:04;21.75;;;16.05;;
79399;SDS011;68856;45.586;10.264;2023-12-20T09:08:30;28.88;;;14.38;;
79399;SDS011;68856;45.586;10.264;2023-12-20T09:10:56;22.40;;;14.50;;
79399;SDS011;68856;45.586;10.264;2023-12-20T09:13:23;25.92;;;15.32;;
79399;SDS011;68856;45.586;10.264;2023-12-20T09:15:54;23.10;;;15.70;;
79399;SDS011;68856;45.586;10.264;2023-12-20T09:18:20;24.05;;;15.82;;
79399;SDS011;68856;45.586;10.264;2023-12-20T09:20:47;26.25;;;15.77;;
79399;SDS011;68856;45.586;10.264;2023-12-20T09:23:13;26.42;;;15.73;;
79399;SDS011;68856;45.586;10.264;2023-12-20T09:25:39;27.80;;;19.60;;
79399;SDS011;68856;45.586;10.264;2023-12-20T09:28:05;25.08;;;17.08;;
79399;SDS011;68856;45.586;10.264;2023-12-20T09:30:32;24.73;;;16.33;;
79399;SDS011;68856;45.586;10.264;2023-12-20T09:32:58;25.40;;;17.80;;
79399;SDS011;68856;45.586;10.264;2023-12-20T09:35:24;23.88;;;15.85;;
79399;SDS011;68856;45.586;10.264;2023-12-20T09:37:51;23.67;;;17.08;;
79399;SDS011;68856;45.586;10.264;2023-12-20T09:40:18;27.00;;;15.95;;
79399;SDS011;68856;45.586;10.264;2023-12-20T09:42:48;27.85;;;16.33;;
79399;SDS011;68856;45.586;10.264;2023-12-20T09:45:45;22.10;;;15.88;;
79399;SDS011;68856;45.586;10.264;2023-12-20T09:48:12;24.23;;;16.38;;
79399;SDS011;68856;45.586;10.264;2023-12-20T09:50:42;27.52;;;14.30;;
79399;SDS011;68856;45.586;10.264;2023-12-20T09:53:09;23.38;;;15.32;;
79399;SDS011;68856;45.586;10.264;2023-12-20T09:58:06;22.13;;;14.45;;
79399;SDS011;68856;45.586;10.264;2023-12-20T10:00:34;21.52;;;15.55;;
79399;SDS011;68856;45.586;10.264;2023-12-20T10:03:00;20.20;;;14.00;;
79399;SDS011;68856;45.586;10.264;2023-12-20T10:07:54;28.50;;;16.27;;
79399;SDS011;68856;45.586;10.264;2023-12-20T10:10:21;25.25;;;15.95;;
79399;SDS011;68856;45.586;10.264;2023-12-20T10:13:04;26.98;;;15.02;;
79399;SDS011;68856;45.586;10.264;2023-12-20T10:15:35;25.80;;;17.52;;
79399;SDS011;68856;45.586;10.264;2023-12-20T10:18:02;25.83;;;18.20;;
79399;SDS011;68856;45.586;10.264;2023-12-20T10:20:30;26.88;;;17.60;;
79399;SDS011;68856;45.586;10.264;2023-12-20T10:22:59;25.35;;;17.40;;
79399;SDS011;68856;45.586;10.264;2023-12-20T10:25:26;29.55;;;18.10;;
79399;SDS011;68856;45.586;10.264;2023-12-20T10:28:10;24.40;;;16.33;;
79399;SDS011;68856;45.586;10.264;2023-12-20T10:30:37;24.60;;;16.00;;
79399;SDS011;68856;45.586;10.264;2023-12-20T10:33:07;19.23;;;11.45;;
79399;SDS011;68856;45.586;10.264;2023-12-20T10:35:35;18.00;;;12.33;;
79399;SDS011;68856;45.586;10.264;2023-12-20T10:38:05;25.73;;;11.38;;
79399;SDS011;68856;45.586;10.264;2023-12-20T10:40:35;18.83;;;10.95;;
79399;SDS011;68856;45.586;10.264;2023-12-20T10:43:02;19.07;;;11.37;;
79399;SDS011;68856;45.586;10.264;2023-12-20T10:45:30;17.80;;;11.38;;
79399;SDS011;68856;45.586;10.264;2023-12-20T10:47:56;23.10;;;11.55;;
79399;SDS011;68856;45.586;10.264;2023-12-20T10:50:27;20.33;;;11.50;;
79399;SDS011;68856;45.586;10.264;2023-12-20T10:52:54;19.52;;;11.15;;
79399;SDS011;68856;45.586;10.264;2023-12-20T10:55:22;25.08;;;11.60;;
79399;SDS011;68856;45.586;10.264;2023-12-20T10:57:49;16.08;;;10.60;;
79399;SDS011;68856;45.586;10.264;2023-12-20T11:00:17;20.83;;;12.13;;
79399;SDS011;68856;45.586;10.264;2023-12-20T11:02:46;18.20;;;10.20;;
79399;SDS011;68856;45.586;10.264;2023-12-20T11:08:00;19.35;;;10.35;;
79399;SDS011;68856;45.586;10.264;2023-12-20T11:14:07;18.25;;;11.68;;
79399;SDS011;68856;45.586;10.264;2023-12-20T11:16:20;18.92;;;10.43;;
79399;SDS011;68856;45.586;10.264;2023-12-20T11:18:46;19.52;;;11.40;;
79399;SDS011;68856;45.586;10.264;2023-12-20T11:21:13;17.58;;;11.52;;
79399;SDS011;68856;45.586;10.264;2023-12-20T11:23:40;32.25;;;16.52;;
79399;SDS011;68856;45.586;10.264;2023-12-20T11:26:08;30.50;;;16.23;;
79399;SDS011;68856;45.586;10.264;2023-12-20T11:28:34;31.77;;;17.30;;
79399;SDS011;68856;45.586;10.264;2023-12-20T11:31:01;25.40;;;17.50;;
79399;SDS011;68856;45.586;10.264;2023-12-20T11:36:03;26.60;;;15.32;;
79399;SDS011;68856;45.586;10.264;2023-12-20T11:38:38;23.45;;;14.25;;
79399;SDS011;68856;45.586;10.264;2023-12-20T11:41:14;20.58;;;13.95;;
79399;SDS011;68856;45.586;10.264;2023-12-20T11:43:41;20.63;;;14.60;;
79399;SDS011;68856;45.586;10.264;2023-12-20T11:46:08;15.55;;;10.93;;
79399;SDS011;68856;45.586;10.264;2023-12-20T11:48:37;19.15;;;12.07;;
79399;SDS011;68856;45.586;10.264;2023-12-20T11:51:11;20.48;;;11.63;;
79399;SDS011;68856;45.586;10.264;2023-12-20T11:53:38;19.77;;;12.10;;
79399;SDS011;68856;45.586;10.264;2023-12-20T11:56:07;24.17;;;12.77;;
79399;SDS011;68856;45.586;10.264;2023-12-20T11:58:34;20.33;;;12.82;;
79399;SDS011;68856;45.586;10.264;2023-12-20T12:01:00;18.33;;;12.77;;
79399;SDS011;68856;45.586;10.264;2023-12-20T12:03:32;16.30;;;10.95;;
79399;SDS011;68856;45.586;10.264;2023-12-20T12:05:58;18.88;;;11.85;;
79399;SDS011;68856;45.586;10.264;2023-12-20T12:08:26;20.17;;;10.45;;
79399;SDS011;68856;45.586;10.264;2023-12-20T12:10:52;20.75;;;12.60;;
79399;SDS011;68856;45.586;10.264;2023-12-20T12:13:18;19.38;;;11.65;;
79399;SDS011;68856;45.586;10.264;2023-12-20T12:15:45;24.80;;;13.55;;
79399;SDS011;68856;45.586;10.264;2023-12-20T12:18:15;21.95;;;12.82;;
79399;SDS011;68856;45.586;10.264;2023-12-20T12:20:42;22.77;;;12.68;;
79399;SDS011;68856;45.586;10.264;2023-12-20T12:23:08;23.10;;;13.40;;
79399;SDS011;68856;45.586;10.264;2023-12-20T12:25:35;26.40;;;13.27;;
79399;SDS011;68856;45.586;10.264;2023-12-20T12:28:02;21.30;;;13.07;;
79399;SDS011;68856;45.586;10.264;2023-12-20T12:30:28;25.65;;;14.77;;
79399;SDS011;68856;45.586;10.264;2023-12-20T12:32:55;26.83;;;14.20;;
79399;SDS011;68856;45.586;10.264;2023-12-20T12:35:23;26.63;;;14.70;;
79399;SDS011;68856;45.586;10.264;2023-12-20T12:37:49;22.45;;;14.23;;
79399;SDS011;68856;45.586;10.264;2023-12-20T12:40:16;22.02;;;14.40;;
79399;SDS011;68856;45.586;10.264;2023-12-20T12:42:43;20.83;;;13.88;;
79399;SDS011;68856;45.586;10.264;2023-12-20T12:45:11;22.40;;;14.10;;
79399;SDS011;68856;45.586;10.264;2023-12-20T12:47:37;23.52;;;14.52;;
79399;SDS011;68856;45.586;10.264;2023-12-20T12:50:04;23.40;;;15.27;;
79399;SDS011;68856;45.586;10.264;2023-12-20T12:52:30;22.42;;;15.52;;
79399;SDS011;68856;45.586;10.264;2023-12-20T12:54:57;23.13;;;15.02;;
79399;SDS011;68856;45.586;10.264;2023-12-20T12:57:23;23.70;;;13.90;;
79399;SDS011;68856;45.586;10.264;2023-12-20T12:59:50;27.08;;;15.02;;
79399;SDS011;68856;45.586;10.264;2023-12-20T13:02:16;23.42;;;16.10;;
79399;SDS011;68856;45.586;10.264;2023-12-20T13:04:43;23.42;;;15.82;;
79399;SDS011;68856;45.586;10.264;2023-12-20T13:07:10;26.67;;;15.80;;
79399;SDS011;68856;45.586;10.264;2023-12-20T13:09:37;23.50;;;15.50;;
79399;SDS011;68856;45.586;10.264;2023-12-20T13:12:04;22.95;;;15.00;;
79399;SDS011;68856;45.586;10.264;2023-12-20T13:14:34;28.58;;;16.63;;
79399;SDS011;68856;45.586;10.264;2023-12-20T13:17:03;21.75;;;16.55;;
79399;SDS011;68856;45.586;10.264;2023-12-20T13:19:30;22.98;;;16.30;;
79399;SDS011;68856;45.586;10.264;2023-12-20T13:21:57;24.15;;;16.67;;
79399;SDS011;68856;45.586;10.264;2023-12-20T13:24:23;23.38;;;16.77;;
79399;SDS011;68856;45.586;10.264;2023-12-20T13:26:49;24.05;;;17.17;;
79399;SDS011;68856;45.586;10.264;2023-12-20T13:29:16;27.95;;;16.05;;
79399;SDS011;68856;45.586;10.264;2023-12-20T13:31:42;21.35;;;15.50;;
79399;SDS011;68856;45.586;10.264;2023-12-20T13:34:08;23.17;;;15.88;;
79399;SDS011;68856;45.586;10.264;2023-12-20T13:36:34;24.73;;;16.95;;
79399;SDS011;68856;45.586;10.264;2023-12-20T13:39:01;26.60;;;18.77;;
79399;SDS011;68856;45.586;10.264;2023-12-20T13:41:29;20.73;;;15.90;;
79399;SDS011;68856;45.586;10.264;2023-12-20T13:43:55;25.88;;;16.45;;
79399;SDS011;68856;45.586;10.264;2023-12-20T13:46:22;24.58;;;16.80;;
79399;SDS011;68856;45.586;10.264;2023-12-20T13:48:49;25.17;;;16.92;;
79399;SDS011;68856;45.586;10.264;2023-12-20T13:51:15;25.52;;;17.17;;
79399;SDS011;68856;45.586;10.264;2023-12-20T13:53:41;23.30;;;16.80;;
79399;SDS011;68856;45.586;10.264;2023-12-20T13:56:07;28.02;;;20.88;;
79399;SDS011;68856;45.586;10.264;2023-12-20T13:58:34;21.05;;;18.73;;
79399;SDS011;68856;45.586;10.264;2023-12-20T14:01:00;22.70;;;19.45;;
79399;SDS011;68856;45.586;10.264;2023-12-20T14:03:26;24.23;;;18.80;;
79399;SDS011;68856;45.586;10.264;2023-12-20T14:05:53;27.77;;;19.23;;
79399;SDS011;68856;45.586;10.264;2023-12-20T14:08:19;25.67;;;19.30;;
79399;SDS011;68856;45.586;10.264;2023-12-20T14:10:45;29.73;;;22.75;;
79399;SDS011;68856;45.586;10.264;2023-12-20T14:13:12;22.55;;;18.00;;
79399;SDS011;68856;45.586;10.264;2023-12-20T14:15:38;25.17;;;21.50;;
79399;SDS011;68856;45.586;10.264;2023-12-20T14:18:04;24.65;;;20.08;;
79399;SDS011;68856;45.586;10.264;2023-12-20T14:20:32;26.15;;;19.42;;
79399;SDS011;68856;45.586;10.264;2023-12-20T14:23:00;27.50;;;20.27;;
79399;SDS011;68856;45.586;10.264;2023-12-20T14:25:26;26.95;;;19.90;;
79399;SDS011;68856;45.586;10.264;2023-12-20T14:27:53;27.98;;;19.80;;
79399;SDS011;68856;45.586;10.264;2023-12-20T14:30:19;27.05;;;18.73;;
79399;SDS011;68856;45.586;10.264;2023-12-20T14:32:45;22.65;;;18.40;;